Time;durP1;ratioP1;P1;durP2;ratioP2;P2;SDS_P1;SDS_P2;PMS_P1;PMS_P2;Temp;Humidity;BMP_temperature;BMP_pressure;BME280_temperature;BME280_humidity;BME280_pressure;Samples;Min_cycle;Max_cycle;Signal;HPM_P1;HPM_P2
2020/12/13 00:08:48;;;;;;;71.80;39.53;;;8.30;99.90;;;;;;6241454;23;20144;-94
2020/12/13 00:17:10;;;;;;;73.80;39.33;;;8.30;99.90;;;;;;6213947;23;20187;-94
2020/12/13 00:34:21;;;;;;;66.22;34.95;;;8.20;99.90;;;;;;6219547;23;20183;-92
2020/12/13 00:36:55;;;;;;;70.45;38.92;;;8.30;99.90;;;;;;6243768;23;20208;-95
2020/12/13 00:39:26;;;;;;;72.57;37.60;;;8.20;99.90;;;;;;6228943;23;20223;-93
2020/12/13 00:41:58;;;;;;;72.47;35.33;;;8.40;99.90;;;;;;6243641;23;20211;-94
2020/12/13 00:44:32;;;;;;;68.95;39.33;;;8.20;99.90;;;;;;6218779;23;20152;-93
2020/12/13 00:49:46;;;;;;;93.18;40.42;;;8.20;99.90;;;;;;6151729;23;20220;-95
2020/12/13 01:19:29;;;;;;;64.93;37.03;;;8.20;99.90;;;;;;6139404;23;20201;-94
2020/12/13 01:24:43;;;;;;;67.97;35.95;;;8.10;99.90;;;;;;6121444;23;20150;-95
2020/12/13 01:30:02;;;;;;;55.78;34.85;;;8.10;99.90;;;;;;6150909;23;20174;-93
2020/12/13 01:32:36;;;;;;;60.28;33.90;;;8.30;99.90;;;;;;6140707;23;20209;-93
2020/12/13 01:40:27;;;;;;;62.78;33.28;;;8.20;99.90;;;;;;6141091;23;20158;-94
2020/12/13 01:42:54;;;;;;;65.95;31.13;;;8.20;99.90;;;;;;6140070;23;20177;-94
2020/12/13 01:48:06;;;;;;;61.17;32.88;;;8.20;99.90;;;;;;6145454;23;20193;-93
2020/12/13 01:59:13;;;;;;;61.25;33.90;;;8.50;99.90;;;;;;6150806;23;20147;-95
2020/12/13 02:16:25;;;;;;;63.38;33.60;;;8.30;99.90;;;;;;6145955;23;20213;-94
2020/12/13 02:22:11;;;;;;;71.22;38.13;;;8.20;99.90;;;;;;6105023;23;20157;-94
2020/12/13 02:24:48;;;;;;;82.15;38.00;;;8.30;99.90;;;;;;6155633;23;20178;-96
2020/12/13 02:33:01;;;;;;;69.68;34.55;;;8.30;99.90;;;;;;6150910;23;20158;-94
2020/12/13 02:38:28;;;;;;;83.68;42.58;;;8.30;99.90;;;;;;6141167;23;20165;-93
2020/12/13 02:46:20;;;;;;;75.03;37.83;;;8.20;99.90;;;;;;6144948;23;20177;-93
2020/12/13 02:48:47;;;;;;;74.93;41.67;;;8.20;99.90;;;;;;6152482;23;20406;-93
2020/12/13 02:51:14;;;;;;;78.28;40.13;;;8.20;99.90;;;;;;6148581;23;20206;-92
2020/12/13 02:53:57;;;;;;;81.47;41.33;;;8.20;99.90;;;;;;6151964;23;20162;-93
2020/12/13 02:56:24;;;;;;;76.05;39.95;;;8.40;99.90;;;;;;6138545;23;20241;-93
2020/12/13 03:04:12;;;;;;;79.13;36.47;;;8.20;99.90;;;;;;6141605;23;20158;-93
2020/12/13 03:06:39;;;;;;;79.30;39.55;;;8.20;99.90;;;;;;6151737;23;20162;-92
2020/12/13 03:09:16;;;;;;;70.13;38.58;;;8.40;99.90;;;;;;6146866;23;20169;-94
2020/12/13 03:11:46;;;;;;;72.38;37.92;;;8.50;99.90;;;;;;6135952;23;20214;-95
2020/12/13 03:14:14;;;;;;;76.72;38.88;;;8.20;99.90;;;;;;6136717;23;20193;-95
2020/12/13 03:16:45;;;;;;;74.88;37.42;;;8.50;99.90;;;;;;6136370;23;20172;-95
2020/12/13 03:19:11;;;;;;;74.95;37.83;;;8.20;99.90;;;;;;6138113;23;20162;-95
2020/12/13 03:21:46;;;;;;;83.25;39.53;;;8.20;99.90;;;;;;6139167;23;20167;-95
2020/12/13 03:24:17;;;;;;;79.55;41.20;;;8.20;99.90;;;;;;6136591;23;20166;-94
2020/12/13 03:32:10;;;;;;;74.13;39.72;;;8.20;99.90;;;;;;6137686;23;20158;-95
2020/12/13 03:34:38;;;;;;;74.85;37.13;;;8.20;99.90;;;;;;6135946;23;20615;-95
2020/12/13 03:37:07;;;;;;;70.40;38.38;;;8.20;99.90;;;;;;6138111;23;20222;-94
2020/12/13 03:39:37;;;;;;;75.82;38.58;;;8.20;99.90;;;;;;6150818;23;20156;-94
2020/12/13 03:42:05;;;;;;;73.75;39.55;;;8.20;99.90;;;;;;6148766;23;20213;-94
2020/12/13 03:47:23;;;;;;;81.68;41.67;;;8.10;99.90;;;;;;6146836;23;20163;-95
2020/12/13 03:49:52;;;;;;;73.10;40.70;;;8.30;99.90;;;;;;6163818;23;20196;-94
2020/12/13 03:52:20;;;;;;;77.78;42.13;;;8.20;99.90;;;;;;6166762;23;20184;-94
2020/12/13 03:54:49;;;;;;;74.50;40.70;;;8.10;99.90;;;;;;6165404;23;20218;-93
2020/12/13 03:57:19;;;;;;;92.88;41.72;;;8.30;99.90;;;;;;6166794;23;20221;-96
2020/12/13 03:59:47;;;;;;;90.75;44.20;;;8.20;99.90;;;;;;6168652;23;20494;-95
2020/12/13 04:02:13;;;;;;;74.40;42.67;;;8.20;99.90;;;;;;6167172;23;20486;-95
2020/12/13 04:04:40;;;;;;;84.45;44.88;;;8.20;99.90;;;;;;6166717;23;20185;-94
2020/12/13 04:07:07;;;;;;;85.07;45.35;;;8.40;99.90;;;;;;6166795;23;20475;-94
2020/12/13 04:09:35;;;;;;;85.20;44.80;;;8.10;99.90;;;;;;6163184;23;20181;-95
2020/12/13 04:12:04;;;;;;;69.00;40.80;;;8.10;99.90;;;;;;6163848;23;20196;-96
2020/12/13 04:14:33;;;;;;;76.80;42.92;;;8.20;99.90;;;;;;6165516;23;20167;-93
2020/12/13 04:17:00;;;;;;;74.97;40.38;;;8.10;99.90;;;;;;6167806;23;20189;-95
2020/12/13 04:19:31;;;;;;;71.07;41.85;;;8.10;99.90;;;;;;6167676;23;20162;-95
2020/12/13 04:21:59;;;;;;;72.35;40.38;;;8.20;99.90;;;;;;6167868;23;20213;-96
2020/12/13 04:24:30;;;;;;;81.32;43.97;;;8.10;99.90;;;;;;6141973;23;20165;-94
2020/12/13 04:26:58;;;;;;;66.60;38.17;;;8.20;99.90;;;;;;6167471;23;20482;-95
2020/12/13 04:29:35;;;;;;;66.82;39.78;;;8.10;99.90;;;;;;6169723;23;20221;-94
2020/12/13 04:34:57;;;;;;;76.88;43.38;;;8.20;99.90;;;;;;6168324;23;20189;-95
2020/12/13 04:37:31;;;;;;;70.20;41.90;;;8.20;99.90;;;;;;6143180;23;20172;-94
2020/12/13 04:39:58;;;;;;;71.78;41.85;;;8.20;99.90;;;;;;6167261;23;20169;-95
2020/12/13 04:42:30;;;;;;;64.65;39.08;;;8.20;99.90;;;;;;6169759;23;20161;-96
2020/12/13 04:45:18;;;;;;;67.93;40.65;;;8.30;99.90;;;;;;6168827;23;20161;-96
2020/12/13 04:50:55;;;;;;;76.20;41.53;;;8.20;99.90;;;;;;6178377;23;20281;-94
2020/12/13 04:53:28;;;;;;;70.22;37.85;;;8.20;99.90;;;;;;6182474;23;20156;-95
2020/12/13 04:55:56;;;;;;;61.83;41.17;;;8.20;99.90;;;;;;6183393;23;20154;-94
2020/12/13 04:58:27;;;;;;;68.45;40.13;;;8.20;99.90;;;;;;6178604;23;20149;-96
2020/12/13 05:06:41;;;;;;;72.70;38.28;;;8.20;99.90;;;;;;6164808;23;20164;-92
2020/12/13 05:09:10;;;;;;;63.53;38.72;;;8.20;99.90;;;;;;6168061;23;20182;-95
2020/12/13 05:14:27;;;;;;;72.07;40.60;;;8.10;99.90;;;;;;6152815;23;20632;-95
2020/12/13 05:17:09;;;;;;;78.38;40.70;;;8.10;99.90;;;;;;6169090;23;20161;-94
2020/12/13 05:19:42;;;;;;;69.85;39.42;;;8.70;99.90;;;;;;6142828;23;20170;-94
2020/12/13 05:22:17;;;;;;;71.30;40.10;;;8.20;99.90;;;;;;6168047;23;20189;-95
2020/12/13 05:27:40;;;;;;;65.10;37.10;;;8.20;99.90;;;;;;6174913;23;20192;-95
2020/12/13 05:30:19;;;;;;;61.83;37.58;;;8.20;99.90;;;;;;6181913;23;20240;-96
2020/12/13 05:32:57;;;;;;;72.03;38.13;;;8.20;99.90;;;;;;6172539;23;20281;-95
2020/12/13 05:35:24;;;;;;;65.13;35.53;;;8.40;99.90;;;;;;6175257;23;20161;-95
2020/12/13 05:37:53;;;;;;;64.72;36.20;;;8.30;99.90;;;;;;6176336;23;20162;-94
2020/12/13 05:40:33;;;;;;;68.57;37.08;;;8.20;99.90;;;;;;6176081;23;20161;-94
2020/12/13 05:43:11;;;;;;;63.20;35.25;;;8.10;99.90;;;;;;6182437;23;20153;-94
2020/12/13 05:53:57;;;;;;;68.78;37.28;;;8.20;99.90;;;;;;6183509;23;20172;-95
2020/12/13 05:56:24;;;;;;;72.40;39.80;;;8.10;99.90;;;;;;6184370;23;20169;-93
2020/12/13 05:58:51;;;;;;;76.18;39.65;;;8.10;99.90;;;;;;6183792;23;20149;-88
2020/12/13 06:01:22;;;;;;;73.53;37.85;;;8.10;99.90;;;;;;6177933;23;20221;-89
2020/12/13 06:03:51;;;;;;;72.65;37.55;;;8.20;99.90;;;;;;6168604;23;20192;-88
2020/12/13 06:06:22;;;;;;;68.35;39.13;;;8.10;99.90;;;;;;6169630;23;20189;-89
2020/12/13 06:09:06;;;;;;;82.63;40.60;;;8.10;99.90;;;;;;6171052;23;20168;-89
2020/12/13 06:11:38;;;;;;;74.45;39.85;;;8.10;99.90;;;;;;6174514;23;20185;-88
2020/12/13 06:14:09;;;;;;;75.45;41.13;;;8.10;99.90;;;;;;6173151;23;20158;-89
2020/12/13 06:16:36;;;;;;;74.35;40.75;;;8.10;99.90;;;;;;6165535;23;20599;-90
2020/12/13 06:19:04;;;;;;;77.03;39.42;;;8.20;99.90;;;;;;6158587;23;20157;-90
2020/12/13 06:21:31;;;;;;;73.13;42.10;;;8.10;99.90;;;;;;6157756;23;20164;-90
2020/12/13 06:23:58;;;;;;;77.13;41.58;;;8.10;99.90;;;;;;6157278;23;20162;-89
2020/12/13 06:26:25;;;;;;;70.50;38.10;;;8.10;99.90;;;;;;6157034;23;20162;-89
2020/12/13 06:28:52;;;;;;;72.13;36.55;;;8.10;99.90;;;;;;6158945;23;20494;-89
2020/12/13 06:31:19;;;;;;;81.78;42.85;;;8.10;99.90;;;;;;6157130;23;20228;-90
2020/12/13 06:33:45;;;;;;;72.25;39.53;;;8.20;99.90;;;;;;6156800;23;20177;-90
2020/12/13 06:36:14;;;;;;;75.65;40.60;;;8.20;99.90;;;;;;6156645;23;20169;-89
2020/12/13 06:38:41;;;;;;;71.55;40.63;;;8.10;99.90;;;;;;6156504;23;20181;-89
2020/12/13 06:41:08;;;;;;;81.38;43.97;;;8.10;99.90;;;;;;6156862;23;20173;-88
2020/12/13 06:43:50;;;;;;;73.57;39.35;;;8.10;99.90;;;;;;6156821;23;20166;-88
2020/12/13 06:46:19;;;;;;;86.20;41.15;;;8.10;99.90;;;;;;6156584;23;20157;-88
2020/12/13 06:48:45;;;;;;;66.45;37.05;;;8.10;99.90;;;;;;6156180;23;20186;-87
2020/12/13 06:51:17;;;;;;;69.05;38.28;;;8.10;99.90;;;;;;6156195;23;20189;-86
2020/12/13 06:53:44;;;;;;;74.47;43.85;;;8.10;99.90;;;;;;6155946;23;20534;-88
2020/12/13 06:56:11;;;;;;;67.05;37.63;;;8.10;99.90;;;;;;6155760;23;20158;-87
2020/12/13 06:58:46;;;;;;;68.78;37.33;;;8.10;99.90;;;;;;6157646;23;20165;-86
2020/12/13 07:01:17;;;;;;;69.30;37.55;;;8.10;99.90;;;;;;6157938;23;20497;-86
2020/12/13 07:03:43;;;;;;;73.13;38.83;;;8.10;99.90;;;;;;6157558;23;20165;-85
2020/12/13 07:06:16;;;;;;;74.07;37.05;;;8.10;99.90;;;;;;6157612;23;20241;-90
2020/12/13 07:08:49;;;;;;;64.28;36.75;;;8.10;99.90;;;;;;6157317;23;20216;-86
2020/12/13 07:11:16;;;;;;;63.25;35.20;;;8.10;99.90;;;;;;6157828;23;20178;-86
2020/12/13 07:13:44;;;;;;;59.33;34.35;;;8.10;99.90;;;;;;6157330;23;20618;-85
2020/12/13 07:16:15;;;;;;;64.72;34.03;;;8.00;99.90;;;;;;6157511;23;20172;-86
2020/12/13 07:18:46;;;;;;;72.32;33.90;;;8.00;99.90;;;;;;6158334;23;20622;-86
2020/12/13 07:21:15;;;;;;;56.55;32.38;;;8.00;99.90;;;;;;6159203;23;20531;-86
2020/12/13 07:23:43;;;;;;;59.40;33.08;;;8.00;99.90;;;;;;6158443;23;20165;-86
2020/12/13 07:26:13;;;;;;;56.08;33.63;;;8.00;99.90;;;;;;6157331;23;20493;-86
2020/12/13 07:28:39;;;;;;;58.95;33.97;;;8.00;99.90;;;;;;6158299;23;20224;-86
2020/12/13 07:31:07;;;;;;;59.00;32.78;;;8.00;99.90;;;;;;6158193;23;20186;-86
2020/12/13 07:33:33;;;;;;;65.13;35.38;;;8.00;99.90;;;;;;6156874;23;20168;-84
2020/12/13 07:36:00;;;;;;;61.92;35.30;;;8.00;99.90;;;;;;6158480;23;20169;-86
2020/12/13 07:38:26;;;;;;;57.83;36.03;;;8.00;99.90;;;;;;6158118;23;20546;-86
2020/12/13 07:40:53;;;;;;;61.47;32.17;;;8.00;99.90;;;;;;6157633;23;20165;-86
2020/12/13 07:43:20;;;;;;;60.80;35.38;;;8.00;99.90;;;;;;6158347;23;20637;-85
2020/12/13 07:45:46;;;;;;;52.65;33.55;;;8.00;99.90;;;;;;6157595;23;20197;-86
2020/12/13 07:48:15;;;;;;;58.58;33.35;;;8.00;99.90;;;;;;6158147;23;20467;-87
2020/12/13 07:50:47;;;;;;;61.22;33.90;;;8.00;99.90;;;;;;6158143;23;20657;-85
2020/12/13 07:53:23;;;;;;;58.72;30.67;;;8.00;99.90;;;;;;6157905;23;20161;-85
2020/12/13 07:55:49;;;;;;;51.42;31.83;;;8.30;99.90;;;;;;6157765;23;20489;-86
2020/12/13 07:58:19;;;;;;;49.97;32.10;;;8.00;99.90;;;;;;6157701;23;20161;-87
2020/12/13 08:00:45;;;;;;;59.80;35.53;;;8.00;99.90;;;;;;6158437;23;20161;-85
2020/12/13 08:03:12;;;;;;;57.30;35.50;;;8.00;99.90;;;;;;6158206;23;20488;-87
2020/12/13 08:05:41;;;;;;;56.05;34.47;;;8.00;99.90;;;;;;6157884;23;20189;-85
2020/12/13 08:08:08;;;;;;;66.05;31.80;;;7.90;99.90;;;;;;6158628;23;20249;-87
2020/12/13 08:10:35;;;;;;;58.83;33.80;;;8.00;99.90;;;;;;6166944;23;20192;-84
2020/12/13 08:13:03;;;;;;;54.97;32.10;;;7.90;99.90;;;;;;6164303;23;20494;-86
2020/12/13 08:15:31;;;;;;;48.88;30.05;;;7.90;99.90;;;;;;6167325;23;20166;-88
2020/12/13 08:18:04;;;;;;;58.03;32.80;;;7.90;99.90;;;;;;6168168;23;20210;-87
2020/12/13 08:20:33;;;;;;;42.45;28.85;;;7.90;99.90;;;;;;6167514;23;20158;-87
2020/12/13 08:23:02;;;;;;;43.00;27.92;;;7.80;99.90;;;;;;6167496;23;20165;-85
2020/12/13 08:25:29;;;;;;;57.25;29.20;;;7.80;99.90;;;;;;6159738;23;20161;-87
2020/12/13 08:27:57;;;;;;;41.38;26.90;;;7.80;99.90;;;;;;6157505;23;20171;-88
2020/12/13 08:30:25;;;;;;;54.10;29.17;;;8.50;99.90;;;;;;6158532;23;20672;-84
2020/12/13 08:32:55;;;;;;;41.42;25.30;;;7.80;99.90;;;;;;6157502;23;20166;-86
2020/12/13 08:35:23;;;;;;;41.50;27.85;;;7.70;99.90;;;;;;6157067;23;20216;-87
2020/12/13 08:37:53;;;;;;;43.22;25.77;;;7.70;99.90;;;;;;6158057;23;20523;-87
2020/12/13 08:40:33;;;;;;;41.30;27.75;;;7.70;99.90;;;;;;6158313;23;20669;-88
2020/12/13 08:43:00;;;;;;;39.85;25.77;;;7.70;99.90;;;;;;6160060;23;20153;-85
2020/12/13 08:45:26;;;;;;;36.47;24.98;;;7.70;99.90;;;;;;6160397;23;20165;-86
2020/12/13 08:47:59;;;;;;;42.50;26.85;;;7.70;99.90;;;;;;6158571;23;20161;-86
2020/12/13 08:50:25;;;;;;;42.83;26.67;;;7.70;99.90;;;;;;6157380;23;20205;-89
2020/12/13 08:52:51;;;;;;;46.45;27.40;;;7.70;99.90;;;;;;6158378;23;20161;-85
2020/12/13 08:55:25;;;;;;;39.83;26.92;;;7.80;99.90;;;;;;6157366;23;20173;-85
2020/12/13 08:57:59;;;;;;;38.00;26.20;;;7.70;99.90;;;;;;6157637;23;20173;-86
2020/12/13 09:00:27;;;;;;;36.15;24.35;;;7.70;99.90;;;;;;6158380;23;20154;-86
2020/12/13 09:02:59;;;;;;;38.90;27.83;;;7.70;99.90;;;;;;6157648;23;20170;-86
2020/12/13 09:05:27;;;;;;;39.60;24.05;;;7.70;99.90;;;;;;6157722;23;20466;-88
2020/12/13 09:07:54;;;;;;;33.33;23.50;;;7.70;99.90;;;;;;6158391;23;20173;-85
2020/12/13 09:10:21;;;;;;;37.70;23.30;;;7.70;99.90;;;;;;6157519;23;20244;-86
2020/12/13 09:12:47;;;;;;;32.65;22.40;;;7.70;99.90;;;;;;6158061;23;20170;-86
2020/12/13 09:15:15;;;;;;;34.75;21.95;;;7.70;99.90;;;;;;6156444;23;20172;-85
2020/12/13 09:17:52;;;;;;;29.42;19.90;;;7.70;99.90;;;;;;6157678;23;20184;-89
2020/12/13 09:20:25;;;;;;;32.72;22.60;;;7.70;99.90;;;;;;6157883;23;20612;-90
2020/12/13 09:23:00;;;;;;;40.80;20.60;;;7.70;99.90;;;;;;6158132;23;20154;-88
2020/12/13 09:25:28;;;;;;;30.27;23.17;;;7.70;99.90;;;;;;6158676;23;20553;-89
2020/12/13 09:28:01;;;;;;;32.47;19.08;;;7.70;99.90;;;;;;6157448;23;20166;-86
2020/12/13 09:30:28;;;;;;;35.17;20.45;;;7.60;99.90;;;;;;6159543;23;20178;-87
2020/12/13 09:32:55;;;;;;;29.98;19.60;;;7.70;99.90;;;;;;6159919;23;20212;-85
2020/12/13 09:35:21;;;;;;;26.73;18.85;;;7.70;99.90;;;;;;6159743;23;20247;-88
2020/12/13 09:37:48;;;;;;;31.80;19.42;;;7.70;99.90;;;;;;6158853;23;20223;-88
2020/12/13 09:40:15;;;;;;;32.83;20.13;;;7.70;99.90;;;;;;6160654;23;20165;-87
2020/12/13 09:42:41;;;;;;;28.83;19.05;;;7.70;99.90;;;;;;6163231;23;20180;-87
2020/12/13 09:45:08;;;;;;;25.75;16.60;;;7.70;99.90;;;;;;6165385;23;20162;-91
2020/12/13 09:47:34;;;;;;;28.63;19.02;;;7.60;99.90;;;;;;6158171;23;20188;-85
2020/12/13 09:50:00;;;;;;;33.58;20.15;;;7.60;99.90;;;;;;6157703;23;20196;-86
2020/12/13 09:52:27;;;;;;;32.53;18.48;;;7.60;99.90;;;;;;6156954;23;20162;-84
2020/12/13 09:54:54;;;;;;;35.13;18.48;;;7.60;99.90;;;;;;6156091;23;20483;-85
2020/12/13 09:57:21;;;;;;;29.00;19.70;;;7.60;99.90;;;;;;6156951;23;20162;-83
2020/12/13 09:59:47;;;;;;;30.45;19.90;;;7.60;99.90;;;;;;6156808;23;20170;-83
2020/12/13 10:02:13;;;;;;;29.00;18.67;;;7.60;99.90;;;;;;6156662;23;20168;-83
2020/12/13 10:04:39;;;;;;;28.45;19.63;;;7.60;99.90;;;;;;6156886;23;20161;-84
2020/12/13 10:09:53;;;;;;;29.20;18.02;;;7.70;99.90;;;;;;6155578;23;20153;-82
2020/12/13 10:12:21;;;;;;;27.77;17.13;;;7.80;99.90;;;;;;6156259;23;20162;-83
2020/12/13 10:14:47;;;;;;;25.40;15.75;;;7.80;99.90;;;;;;6156766;23;20738;-83
2020/12/13 10:17:14;;;;;;;22.02;16.58;;;7.90;99.90;;;;;;6156746;23;20634;-83
2020/12/13 10:19:40;;;;;;;35.25;16.25;;;7.90;99.90;;;;;;6156124;23;20158;-84
2020/12/13 10:22:06;;;;;;;23.13;14.75;;;7.90;99.90;;;;;;6156447;23;20232;-83
2020/12/13 10:24:32;;;;;;;22.30;13.65;;;7.90;99.90;;;;;;6157001;23;20185;-85
2020/12/13 10:27:00;;;;;;;23.23;14.23;;;7.90;99.90;;;;;;6156913;23;20673;-83
2020/12/13 10:29:26;;;;;;;20.92;13.80;;;7.90;99.90;;;;;;6157012;23;20161;-83
2020/12/13 10:31:52;;;;;;;26.00;14.82;;;7.90;99.90;;;;;;6157523;23;20245;-84
2020/12/13 10:34:18;;;;;;;22.38;15.70;;;7.80;99.90;;;;;;6158017;23;20165;-84
2020/12/13 10:36:45;;;;;;;21.05;13.90;;;7.80;99.90;;;;;;6158036;23;20165;-83
2020/12/13 10:39:12;;;;;;;35.50;15.10;;;7.80;99.90;;;;;;6158279;23;20538;-83
2020/12/13 10:41:40;;;;;;;23.95;14.32;;;7.80;99.90;;;;;;6158036;23;20165;-82
2020/12/13 10:44:07;;;;;;;18.13;12.30;;;7.80;99.90;;;;;;6158625;23;20682;-84
2020/12/13 10:46:34;;;;;;;18.08;12.00;;;7.70;99.90;;;;;;6160402;23;20173;-84
2020/12/13 10:49:00;;;;;;;21.60;12.52;;;7.90;99.90;;;;;;6162266;23;20282;-83
2020/12/13 10:51:27;;;;;;;17.05;12.57;;;7.90;99.90;;;;;;6166139;23;20200;-85
2020/12/13 10:53:53;;;;;;;17.92;12.50;;;7.90;99.90;;;;;;6159997;23;20166;-83
2020/12/13 10:56:19;;;;;;;17.25;11.88;;;7.90;99.90;;;;;;6161165;23;20169;-84
2020/12/13 10:58:46;;;;;;;19.92;13.77;;;8.00;99.90;;;;;;6159558;23;20628;-84
2020/12/13 11:01:13;;;;;;;18.40;12.38;;;8.00;99.90;;;;;;6158638;23;20165;-83
2020/12/13 11:03:40;;;;;;;20.40;13.27;;;8.10;99.90;;;;;;6158650;23;20482;-85
2020/12/13 11:06:08;;;;;;;16.42;11.48;;;8.10;99.90;;;;;;6158228;23;20168;-84
2020/12/13 11:08:38;;;;;;;15.85;12.45;;;8.10;99.90;;;;;;6158433;23;20169;-82
2020/12/13 11:11:07;;;;;;;17.05;10.35;;;8.20;99.90;;;;;;6158555;23;20186;-85
2020/12/13 11:13:34;;;;;;;20.52;12.00;;;8.20;99.90;;;;;;6158659;23;20633;-84
2020/12/13 11:16:01;;;;;;;15.65;9.57;;;8.30;99.90;;;;;;6157718;23;20165;-84
2020/12/13 11:18:30;;;;;;;14.80;10.15;;;8.30;99.90;;;;;;6158331;23;20486;-83
2020/12/13 11:20:57;;;;;;;13.70;9.32;;;8.20;99.90;;;;;;6158200;23;20169;-85
2020/12/13 11:23:23;;;;;;;11.90;9.23;;;8.20;99.90;;;;;;6157407;23;20161;-83
2020/12/13 11:25:49;;;;;;;14.00;10.55;;;8.20;99.90;;;;;;6158446;23;20166;-84
2020/12/13 11:28:16;;;;;;;14.27;9.55;;;8.20;99.90;;;;;;6159381;23;20173;-84
2020/12/13 11:30:42;;;;;;;18.27;10.07;;;8.20;99.90;;;;;;6158379;23;20192;-84
2020/12/13 11:33:08;;;;;;;11.02;8.00;;;8.30;99.90;;;;;;6160299;23;20168;-84
2020/12/13 11:35:36;;;;;;;14.20;8.90;;;8.30;99.90;;;;;;6159373;23;20161;-83
2020/12/13 11:38:02;;;;;;;17.52;10.52;;;8.30;99.90;;;;;;6157302;23;20225;-84
2020/12/13 11:40:28;;;;;;;12.38;8.02;;;8.30;99.90;;;;;;6156975;23;20637;-85
2020/12/13 11:42:54;;;;;;;14.13;9.48;;;8.30;99.90;;;;;;6158833;23;20167;-85
2020/12/13 11:45:21;;;;;;;16.42;9.60;;;8.30;99.90;;;;;;6160128;23;20173;-85
2020/12/13 11:47:48;;;;;;;15.77;8.70;;;8.30;99.90;;;;;;6158008;23;20224;-84
2020/12/13 11:50:14;;;;;;;10.57;8.57;;;8.40;99.90;;;;;;6158163;23;20185;-84
2020/12/13 11:52:41;;;;;;;12.27;8.23;;;8.50;99.90;;;;;;6158603;23;20173;-84
2020/12/13 11:55:08;;;;;;;17.80;8.65;;;8.50;99.90;;;;;;6157358;23;20672;-84
2020/12/13 11:57:34;;;;;;;11.20;9.23;;;8.60;99.90;;;;;;6158739;23;20260;-85
2020/12/13 12:00:01;;;;;;;13.45;8.80;;;8.70;99.90;;;;;;6159303;23;20169;-85
2020/12/13 12:02:27;;;;;;;14.70;8.80;;;8.90;99.90;;;;;;6159574;23;20498;-86
2020/12/13 12:04:53;;;;;;;12.60;8.30;;;9.00;99.90;;;;;;6164774;23;20167;-85
2020/12/13 12:07:20;;;;;;;13.18;7.78;;;9.10;99.90;;;;;;6167905;23;20184;-84
2020/12/13 12:09:47;;;;;;;11.00;7.93;;;9.30;99.90;;;;;;6168246;23;20166;-86
2020/12/13 12:12:13;;;;;;;14.13;8.10;;;9.40;99.90;;;;;;6168358;23;20190;-86
2020/12/13 12:14:39;;;;;;;10.25;8.13;;;9.40;99.90;;;;;;6168987;23;20189;-85
2020/12/13 12:17:05;;;;;;;10.18;8.15;;;9.40;99.90;;;;;;6164546;23;20223;-84
2020/12/13 12:19:32;;;;;;;10.60;7.45;;;9.50;99.90;;;;;;6160752;23;20168;-85
2020/12/13 12:22:01;;;;;;;8.27;6.85;;;9.50;99.90;;;;;;6162699;23;20162;-86
2020/12/13 12:24:29;;;;;;;10.13;7.10;;;9.40;99.90;;;;;;6168147;23;20170;-85
2020/12/13 12:26:56;;;;;;;10.23;7.35;;;9.30;99.90;;;;;;6166009;23;20688;-85
2020/12/13 12:29:23;;;;;;;15.35;7.93;;;9.30;99.90;;;;;;6163509;23;20161;-84
2020/12/13 12:31:50;;;;;;;8.75;6.88;;;9.10;99.90;;;;;;6160614;23;20189;-85
2020/12/13 12:34:16;;;;;;;8.73;6.10;;;9.40;99.90;;;;;;6159978;23;20212;-87
2020/12/13 12:36:43;;;;;;;9.65;6.70;;;9.90;99.90;;;;;;6161734;23;20174;-86
2020/12/13 12:39:09;;;;;;;10.25;6.10;;;10.60;99.90;;;;;;6161302;23;20173;-86
2020/12/13 12:41:36;;;;;;;7.60;5.10;;;11.00;99.90;;;;;;6161750;23;20166;-85
2020/12/13 12:44:03;;;;;;;6.47;4.90;;;11.20;99.90;;;;;;6162753;23;20217;-86
2020/12/13 12:46:29;;;;;;;10.05;5.75;;;11.30;99.90;;;;;;6161712;23;20161;-84
2020/12/13 12:48:56;;;;;;;9.93;5.00;;;11.00;99.90;;;;;;6160544;23;20236;-85
2020/12/13 12:51:22;;;;;;;13.85;5.78;;;10.40;99.90;;;;;;6160175;23;20193;-85
2020/12/13 12:53:49;;;;;;;6.22;4.63;;;10.10;99.90;;;;;;6161004;23;20194;-86
2020/12/13 12:56:16;;;;;;;7.57;4.85;;;9.80;99.90;;;;;;6159713;23;20202;-85
2020/12/13 12:58:55;;;;;;;5.95;5.30;;;9.50;99.90;;;;;;6160557;23;20598;-85
2020/12/13 13:01:31;;;;;;;8.07;5.10;;;9.40;99.90;;;;;;6161731;23;20705;-85
2020/12/13 13:04:00;;;;;;;12.35;4.93;;;9.30;99.90;;;;;;6159445;23;20158;-84
2020/12/13 13:09:18;;;;;;;5.20;3.75;;;9.00;99.90;;;;;;6160781;23;20688;-84
2020/12/13 13:11:45;;;;;;;7.55;4.68;;;9.00;99.90;;;;;;6169268;23;20185;-85
2020/12/13 13:14:11;;;;;;;4.90;3.17;;;9.00;99.90;;;;;;6169831;23;20161;-86
2020/12/13 13:16:39;;;;;;;5.00;3.25;;;9.10;99.90;;;;;;6161261;23;20169;-85
2020/12/13 13:19:08;;;;;;;6.38;4.15;;;9.10;99.90;;;;;;6158586;23;20161;-86
2020/12/13 13:21:37;;;;;;;5.88;3.60;;;9.10;99.90;;;;;;6159388;23;20166;-87
2020/12/13 13:24:04;;;;;;;9.68;4.32;;;9.20;99.90;;;;;;6157822;23;20165;-86
2020/12/13 13:26:31;;;;;;;7.45;4.38;;;9.30;99.90;;;;;;6158946;23;20590;-85
2020/12/13 13:28:58;;;;;;;5.18;3.80;;;9.30;99.90;;;;;;6158270;23;20656;-86
2020/12/13 13:31:24;;;;;;;6.97;4.40;;;9.30;99.90;;;;;;6158213;23;20186;-85
2020/12/13 13:33:52;;;;;;;8.00;4.95;;;9.30;99.90;;;;;;6157603;23;20165;-87
2020/12/13 13:36:19;;;;;;;7.85;4.85;;;9.20;99.90;;;;;;6157393;23;20220;-86
2020/12/13 13:38:49;;;;;;;5.10;4.35;;;9.10;99.90;;;;;;6157893;23;20169;-84
2020/12/13 13:41:17;;;;;;;7.40;5.30;;;9.10;99.90;;;;;;6157047;23;20582;-85
2020/12/13 13:43:46;;;;;;;4.97;3.42;;;9.00;99.90;;;;;;6157875;23;20192;-86
2020/12/13 13:46:34;;;;;;;8.30;4.90;;;9.00;99.90;;;;;;6156850;23;20646;-85
2020/12/13 13:51:46;;;;;;;6.38;3.58;;;8.90;99.90;;;;;;6156651;23;20261;-85
2020/12/13 13:54:15;;;;;;;6.43;3.53;;;8.90;99.90;;;;;;6156544;23;20606;-86
2020/12/13 13:56:46;;;;;;;8.55;4.47;;;8.80;99.90;;;;;;6156271;23;20165;-84
2020/12/13 13:59:18;;;;;;;5.38;3.80;;;8.70;99.90;;;;;;6156738;23;20150;-85
2020/12/13 14:01:44;;;;;;;9.50;4.18;;;8.70;99.90;;;;;;6156856;23;20154;-85
2020/12/13 14:04:12;;;;;;;7.20;4.45;;;8.60;99.90;;;;;;6156899;23;20235;-85
2020/12/13 14:09:33;;;;;;;9.55;3.63;;;8.70;99.90;;;;;;5091289;28;20485;-85
2020/12/13 14:12:00;;;;;;;4.30;3.28;;;8.70;99.90;;;;;;5071139;28;20197;-86
2020/12/13 14:14:28;;;;;;;5.93;3.38;;;8.60;99.90;;;;;;5071952;28;20214;-89
2020/12/13 14:16:54;;;;;;;6.35;3.50;;;8.60;99.90;;;;;;5071594;28;20202;-89
2020/12/13 14:19:21;;;;;;;5.13;3.13;;;8.40;99.90;;;;;;5059466;28;20196;-90
2020/12/13 14:21:48;;;;;;;6.78;4.35;;;8.20;99.90;;;;;;5052554;28;20256;-88
2020/12/13 14:24:14;;;;;;;8.32;3.67;;;8.20;99.90;;;;;;5052712;28;20219;-90
2020/12/13 14:26:42;;;;;;;7.93;3.47;;;8.10;99.90;;;;;;5051588;28;20199;-88
2020/12/13 14:29:09;;;;;;;5.57;4.10;;;8.10;99.90;;;;;;5053418;28;20223;-90
2020/12/13 14:31:35;;;;;;;5.22;4.20;;;8.10;99.90;;;;;;5052009;28;20193;-88
2020/12/13 14:34:02;;;;;;;5.93;4.30;;;8.10;99.90;;;;;;5051074;28;20190;-88
2020/12/13 14:36:28;;;;;;;7.25;3.50;;;8.10;99.90;;;;;;5051193;28;20188;-88
2020/12/13 14:38:56;;;;;;;6.15;4.05;;;8.00;99.90;;;;;;5051040;28;20190;-88
2020/12/13 14:41:23;;;;;;;7.35;4.30;;;7.90;99.90;;;;;;5054235;28;20206;-87
2020/12/13 14:43:50;;;;;;;5.85;3.70;;;7.90;99.90;;;;;;5051627;28;20200;-88
2020/12/13 14:46:17;;;;;;;11.52;4.32;;;7.80;99.90;;;;;;5051538;28;20184;-88
2020/12/13 14:48:44;;;;;;;5.30;3.75;;;7.70;99.90;;;;;;5050970;28;20224;-88
2020/12/13 14:51:10;;;;;;;4.70;3.65;;;7.70;99.90;;;;;;5050955;28;20340;-88
2020/12/13 14:53:37;;;;;;;8.20;5.43;;;7.60;99.90;;;;;;5050881;28;20187;-87
2020/12/13 14:56:04;;;;;;;5.97;4.47;;;7.60;99.90;;;;;;5050867;28;20188;-89
2020/12/13 14:58:30;;;;;;;7.18;5.18;;;7.50;99.90;;;;;;5050933;28;20189;-89
2020/12/13 15:00:57;;;;;;;6.95;4.47;;;7.40;99.90;;;;;;5050756;28;20193;-87
2020/12/13 15:03:24;;;;;;;6.65;5.10;;;7.30;99.90;;;;;;5051681;28;20188;-89
2020/12/13 15:05:50;;;;;;;7.45;4.30;;;7.10;99.90;;;;;;5050712;28;20210;-88
2020/12/13 15:08:16;;;;;;;6.85;5.25;;;7.10;99.90;;;;;;5050377;28;20532;-89
2020/12/13 15:10:45;;;;;;;9.48;5.25;;;6.90;99.90;;;;;;5051097;28;20195;-88
2020/12/13 15:13:14;;;;;;;17.50;5.20;;;6.80;99.90;;;;;;5054255;28;20187;-89
2020/12/13 15:15:47;;;;;;;11.52;5.20;;;6.70;99.90;;;;;;5073586;28;20199;-88
2020/12/13 15:18:14;;;;;;;10.45;5.15;;;6.50;99.90;;;;;;5075059;28;20193;-88
2020/12/13 15:20:41;;;;;;;8.57;5.95;;;6.50;99.90;;;;;;5050271;28;20183;-83
2020/12/13 15:23:07;;;;;;;6.65;4.32;;;6.40;99.90;;;;;;5047092;28;20205;-85
2020/12/13 15:25:34;;;;;;;5.47;4.45;;;6.30;99.90;;;;;;5042262;28;20199;-84
2020/12/13 15:28:00;;;;;;;7.18;5.45;;;6.30;99.90;;;;;;5040194;28;20244;-84
2020/12/13 15:30:26;;;;;;;11.20;5.32;;;6.30;99.90;;;;;;5044008;28;20192;-85